Time;durP1;ratioP1;P1;durP2;ratioP2;P2;SDS_P1;SDS_P2;PMS_P1;PMS_P2;Temp;Humidity;BMP_temperature;BMP_pressure;BME280_temperature;BME280_humidity;BME280_pressure;Samples;Min_cycle;Max_cycle;Signal;HPM_P1;HPM_P2
2021/12/12 00:00:15;;;;;;;21.55;9.25;;;;;;;3.39;82.21;101925.94;5068891;28;20044;-68
2021/12/12 00:02:55;;;;;;;21.33;8.82;;;;;;;3.37;82.32;101922.53;5041289;28;20059;-68
2021/12/12 00:05:28;;;;;;;26.85;8.25;;;;;;;3.32;82.36;101915.84;5069349;28;20053;-68
2021/12/12 00:07:55;;;;;;;23.05;8.85;;;;;;;3.26;81.96;101919.63;5067002;28;20044;-68
2021/12/12 00:10:26;;;;;;;24.85;9.48;;;;;;;3.26;82.47;101925.72;5067073;28;20498;-68
2021/12/12 00:12:58;;;;;;;21.90;8.65;;;;;;;3.34;82.63;101917.44;5065470;28;20401;-68
2021/12/12 00:15:26;;;;;;;25.08;9.18;;;;;;;3.45;81.74;101916.91;5055182;28;20048;-68
2021/12/12 00:17:54;;;;;;;22.15;9.10;;;;;;;3.42;82.39;101920.53;5037655;28;20387;-68
2021/12/12 00:20:24;;;;;;;24.02;8.45;;;;;;;3.46;81.74;101916.81;5053656;28;20402;-68
2021/12/12 00:22:55;;;;;;;20.50;8.40;;;;;;;3.34;82.20;101912.19;5055298;28;20090;-68
2021/12/12 00:25:22;;;;;;;22.50;8.55;;;;;;;3.45;81.94;101919.53;5053591;28;20128;-67
2021/12/12 00:27:48;;;;;;;21.02;8.85;;;;;;;3.33;81.31;101921.00;5055143;28;20489;-67
2021/12/12 00:30:16;;;;;;;28.95;9.38;;;;;;;3.43;81.88;101927.47;5055001;28;20041;-67
2021/12/12 00:32:43;;;;;;;22.58;8.43;;;;;;;3.49;81.77;101928.91;5055232;28;20094;-67
2021/12/12 00:35:14;;;;;;;21.42;8.70;;;;;;;3.47;82.22;101928.16;5051718;28;20095;-67
2021/12/12 00:37:42;;;;;;;17.42;8.18;;;;;;;3.38;82.20;101920.75;5053804;28;20047;-67
2021/12/12 00:40:18;;;;;;;29.98;8.25;;;;;;;3.52;81.18;101925.31;5053558;28;20095;-67
2021/12/12 00:42:46;;;;;;;19.15;8.50;;;;;;;3.55;81.95;101920.75;5054988;28;20473;-67
2021/12/12 00:45:15;;;;;;;28.48;8.73;;;;;;;3.48;81.91;101922.00;5053690;28;20045;-67
2021/12/12 00:47:44;;;;;;;19.05;7.70;;;;;;;3.60;81.84;101918.75;5054747;28;20056;-67
2021/12/12 00:50:17;;;;;;;24.30;8.48;;;;;;;3.58;82.14;101917.94;5054601;28;20037;-67
2021/12/12 00:52:45;;;;;;;26.58;8.02;;;;;;;3.56;81.61;101919.81;5054735;28;20052;-67
2021/12/12 00:55:13;;;;;;;22.33;8.45;;;;;;;3.62;81.33;101905.50;5053440;28;20099;-67
2021/12/12 00:57:40;;;;;;;24.00;7.82;;;;;;;3.47;81.02;101904.53;5053330;28;20041;-67
2021/12/12 01:00:12;;;;;;;21.85;7.90;;;;;;;3.29;81.77;101900.25;5054618;28;20041;-67
2021/12/12 01:02:39;;;;;;;22.08;8.10;;;;;;;3.43;81.53;101877.63;5036641;28;20056;-67
2021/12/12 01:05:10;;;;;;;19.67;8.13;;;;;;;3.59;81.41;101884.69;5051334;28;20053;-67
2021/12/12 01:07:40;;;;;;;23.13;8.60;;;;;;;3.61;81.54;101877.59;5053240;28;20112;-67
2021/12/12 01:10:28;;;;;;;19.75;7.70;;;;;;;3.52;81.30;101881.53;5050033;28;20071;-67
2021/12/12 01:12:57;;;;;;;19.55;7.88;;;;;;;3.55;81.44;101883.19;5054398;28;20375;-67
2021/12/12 01:15:35;;;;;;;24.20;7.90;;;;;;;3.42;81.31;101893.44;5053922;28;20037;-67
2021/12/12 01:18:10;;;;;;;19.88;8.60;;;;;;;3.61;80.52;101882.84;5053245;28;20175;-67
2021/12/12 01:20:42;;;;;;;24.77;8.27;;;;;;;3.61;80.87;101888.09;5052953;28;20124;-67
2021/12/12 01:23:15;;;;;;;21.75;7.72;;;;;;;3.51;80.74;101879.00;5054107;28;20037;-67
2021/12/12 01:25:47;;;;;;;19.90;7.22;;;;;;;3.46;81.51;101887.97;5051682;28;20044;-67
2021/12/12 01:28:18;;;;;;;20.60;7.93;;;;;;;3.54;81.56;101884.94;5054171;28;20064;-67
2021/12/12 01:30:45;;;;;;;16.55;7.28;;;;;;;3.58;81.42;101890.88;5053791;28;20067;-67
2021/12/12 01:33:20;;;;;;;23.67;7.40;;;;;;;3.69;80.83;101887.69;5050964;28;20037;-68
2021/12/12 01:35:48;;;;;;;22.83;7.80;;;;;;;3.50;80.68;101877.31;5053849;28;20099;-67
2021/12/12 01:41:01;;;;;;;21.70;7.97;;;;;;;3.71;80.86;101877.94;5053623;28;20132;-67
2021/12/12 01:43:38;;;;;;;20.92;7.25;;;;;;;3.75;80.60;101877.72;5052685;28;20448;-67
2021/12/12 01:46:15;;;;;;;18.73;7.18;;;;;;;3.63;80.44;101866.06;5052570;28;20071;-67
2021/12/12 01:48:48;;;;;;;16.50;7.25;;;;;;;3.55;80.99;101880.56;5053400;28;20581;-67
2021/12/12 01:51:17;;;;;;;19.27;7.68;;;;;;;3.58;80.81;101873.34;5063414;28;20123;-67
2021/12/12 01:53:48;;;;;;;22.00;6.68;;;;;;;3.61;80.88;101872.34;5055905;28;20548;-67
2021/12/12 01:56:22;;;;;;;24.33;7.50;;;;;;;3.57;80.82;101874.28;5053607;28;20040;-67
2021/12/12 01:58:54;;;;;;;16.75;6.47;;;;;;;3.63;80.75;101875.72;5053397;28;20314;-67
2021/12/12 02:01:26;;;;;;;18.92;7.22;;;;;;;3.73;80.92;101870.84;5052697;28;20044;-67
2021/12/12 02:04:00;;;;;;;20.65;7.93;;;;;;;3.71;81.24;101870.06;5052215;28;20069;-67
2021/12/12 02:06:27;;;;;;;18.88;6.57;;;;;;;3.67;81.04;101866.75;5053084;28;20060;-67
2021/12/12 02:08:56;;;;;;;17.63;6.80;;;;;;;3.70;80.12;101871.00;5083658;28;20402;-67
2021/12/12 02:11:28;;;;;;;18.13;7.03;;;;;;;3.72;80.75;101858.66;5068052;28;20065;-67
2021/12/12 02:13:57;;;;;;;;;;;;;;;3.76;80.99;101861.00;5053603;28;20044;-67
2021/12/12 02:16:26;;;;;;;24.35;7.38;;;;;;;3.77;80.86;101857.47;5053131;28;19990;-67
2021/12/12 02:18:58;;;;;;;16.38;6.47;;;;;;;3.80;80.88;101856.44;5053065;28;20044;-67
2021/12/12 02:21:32;;;;;;;20.00;6.72;;;;;;;3.85;80.45;101862.31;5051494;28;20051;-67
2021/12/12 02:35:21;;;;;;;20.63;6.38;;;;;;;4.03;81.15;101857.84;5052656;28;20120;-67
2021/12/12 02:37:51;;;;;;;18.00;6.45;;;;;;;3.92;80.15;101860.19;5051707;28;20143;-67
2021/12/12 02:40:23;;;;;;;22.38;6.32;;;;;;;3.90;80.17;101856.81;5052701;28;20581;-67
2021/12/12 02:42:51;;;;;;;18.15;6.55;;;;;;;3.85;79.86;101851.81;5033495;28;20045;-67
2021/12/12 02:45:19;;;;;;;20.67;6.78;;;;;;;3.96;80.49;101854.69;5049165;28;20102;-67
2021/12/12 02:47:54;;;;;;;20.77;6.68;;;;;;;3.91;80.58;101850.63;5052677;28;20048;-67
2021/12/12 02:50:25;;;;;;;17.60;6.47;;;;;;;3.98;79.52;101849.34;5034972;28;20049;-67
2021/12/12 02:52:54;;;;;;;19.63;6.07;;;;;;;3.94;79.66;101853.91;5052535;28;20440;-67
2021/12/12 02:55:25;;;;;;;16.15;6.15;;;;;;;4.02;79.77;101850.88;5052194;28;20045;-67
2021/12/12 02:57:54;;;;;;;16.98;6.05;;;;;;;3.99;79.84;101851.91;5052607;28;20124;-67
2021/12/12 03:00:25;;;;;;;26.92;6.55;;;;;;;4.11;79.28;101852.16;5052460;28;20501;-67
2021/12/12 03:02:58;;;;;;;24.08;6.35;;;;;;;3.97;79.68;101852.94;5034854;28;20045;-67
2021/12/12 03:05:29;;;;;;;18.40;6.28;;;;;;;4.02;80.27;101848.25;5052401;28;20398;-67
2021/12/12 03:07:55;;;;;;;15.10;5.93;;;;;;;4.03;79.79;101844.69;5051015;28;20496;-67
2021/12/12 03:10:29;;;;;;;17.00;6.15;;;;;;;4.03;79.64;101847.31;5034894;28;20049;-67
2021/12/12 03:12:56;;;;;;;19.88;6.72;;;;;;;4.05;80.23;101850.72;5051052;28;20069;-67
2021/12/12 03:15:28;;;;;;;14.95;5.97;;;;;;;4.01;79.80;101852.66;5050902;28;20036;-67
2021/12/12 03:17:58;;;;;;;18.75;6.35;;;;;;;4.08;79.69;101852.34;5051980;28;20049;-67
2021/12/12 03:20:32;;;;;;;19.90;6.22;;;;;;;4.22;79.56;101848.00;5050548;28;20090;-67
2021/12/12 03:23:09;;;;;;;14.40;6.15;;;;;;;4.05;80.46;101850.72;5050803;28;20041;-67
2021/12/12 03:25:39;;;;;;;15.23;5.78;;;;;;;4.15;79.62;101851.91;5050961;28;20567;-67
2021/12/12 03:28:08;;;;;;;15.77;5.85;;;;;;;4.07;78.70;101840.97;5051207;28;20071;-67
2021/12/12 03:30:37;;;;;;;19.83;6.50;;;;;;;4.10;79.67;101842.59;5050879;28;20494;-67
2021/12/12 03:33:05;;;;;;;17.25;6.57;;;;;;;4.09;79.41;101846.97;5050787;28;20041;-67
2021/12/12 03:35:32;;;;;;;17.40;6.50;;;;;;;4.14;79.18;101850.19;5050554;28;20048;-67
2021/12/12 03:37:59;;;;;;;18.45;5.95;;;;;;;4.09;80.08;101841.72;5051957;28;20102;-67
2021/12/12 03:40:30;;;;;;;18.55;6.93;;;;;;;4.16;80.40;101847.50;5052095;28;20045;-67
2021/12/12 03:42:59;;;;;;;17.33;6.22;;;;;;;4.13;80.84;101852.91;5051964;28;20405;-68
2021/12/12 03:45:27;;;;;;;17.40;6.57;;;;;;;4.10;80.36;101855.72;5051741;28;20064;-67
2021/12/12 03:48:01;;;;;;;15.68;6.18;;;;;;;4.10;80.72;101859.19;5052026;28;20561;-68
2021/12/12 03:50:34;;;;;;;15.48;6.43;;;;;;;4.06;81.92;101854.19;5054604;28;20048;-67
2021/12/12 03:53:02;;;;;;;16.17;5.93;;;;;;;3.84;81.95;101855.38;5054697;28;20040;-67
2021/12/12 03:55:29;;;;;;;21.90;7.22;;;;;;;4.06;82.29;101847.16;5055699;28;20041;-67
2021/12/12 03:57:59;;;;;;;18.50;6.63;;;;;;;4.10;82.64;101842.59;5054341;28;20490;-67
2021/12/12 04:00:30;;;;;;;20.55;7.03;;;;;;;4.03;82.46;101842.91;5066012;28;20049;-68
2021/12/12 04:02:58;;;;;;;;;;;;;;;4.01;82.79;101850.03;5056085;28;20045;-67
2021/12/12 04:05:26;;;;;;;17.80;6.43;;;;;;;4.10;82.57;101846.06;5055371;28;19921;-67
2021/12/12 04:07:52;;;;;;;22.65;6.25;;;;;;;3.98;83.18;101844.97;5052669;28;20051;-67
2021/12/12 04:10:23;;;;;;;19.45;6.63;;;;;;;4.05;82.96;101845.47;5055261;28;20099;-67
2021/12/12 04:12:52;;;;;;;18.35;6.30;;;;;;;4.01;83.40;101842.16;5055434;28;20099;-67
2021/12/12 04:15:20;;;;;;;24.52;7.32;;;;;;;4.13;83.35;101839.78;5055251;28;20044;-67
2021/12/12 04:17:46;;;;;;;21.67;6.93;;;;;;;4.08;83.68;101847.94;5054019;28;20537;-68
2021/12/12 04:20:19;;;;;;;17.10;6.53;;;;;;;3.95;83.46;101850.38;5037805;28;20045;-67
2021/12/12 04:22:47;;;;;;;22.27;7.22;;;;;;;3.96;83.71;101848.59;5047956;28;20132;-67
2021/12/12 04:25:15;;;;;;;20.92;6.65;;;;;;;3.97;84.16;101851.13;5055207;28;20118;-67
2021/12/12 04:27:42;;;;;;;26.42;7.10;;;;;;;3.79;83.78;101847.72;5045533;28;20445;-67
2021/12/12 04:30:11;;;;;;;21.75;7.70;;;;;;;3.85;84.79;101841.31;5033903;28;20041;-67
2021/12/12 04:32:40;;;;;;;22.38;7.10;;;;;;;3.85;84.71;101843.94;5036034;28;20045;-67
2021/12/12 04:35:14;;;;;;;18.02;6.85;;;;;;;4.00;84.63;101844.84;5053201;28;20041;-67
2021/12/12 04:37:44;;;;;;;21.98;6.82;;;;;;;3.88;84.91;101850.81;5053972;28;20147;-67
2021/12/12 04:40:16;;;;;;;23.23;6.97;;;;;;;3.98;84.89;101849.34;5037359;28;20041;-67
2021/12/12 04:42:44;;;;;;;;;;;;;;;3.90;85.44;101846.31;5055092;28;20132;-67
2021/12/12 04:45:52;;;;;;;21.23;6.97;;;;;;;3.89;86.04;101829.69;5054604;28;19966;-67
2021/12/12 04:51:22;;;;;;;19.50;7.20;;;;;;;3.88;85.25;101833.28;5046996;28;20049;-67
2021/12/12 04:54:19;;;;;;;25.38;7.53;;;;;;;3.85;85.68;101836.88;5054648;28;20087;-67
2021/12/12 04:56:55;;;;;;;17.90;7.00;;;;;;;3.96;85.63;101830.22;5054661;28;20055;-67
2021/12/12 04:59:29;;;;;;;24.98;7.78;;;;;;;3.98;86.39;101829.22;5054259;28;20132;-67
2021/12/12 05:02:21;;;;;;;20.50;7.78;;;;;;;3.96;86.52;101833.69;5053965;28;20416;-67
2021/12/12 05:05:11;;;;;;;20.77;7.45;;;;;;;4.03;85.89;101839.44;5049644;28;20046;-67
2021/12/12 05:07:48;;;;;;;26.92;8.55;;;;;;;3.85;86.24;101829.00;5032743;28;20041;-67
2021/12/12 05:10:22;;;;;;;24.60;7.85;;;;;;;3.93;87.20;101835.63;5052785;28;20624;-67
2021/12/12 05:13:01;;;;;;;18.55;7.70;;;;;;;3.95;86.87;101832.00;5047603;28;20059;-67
2021/12/12 05:15:33;;;;;;;25.35;8.18;;;;;;;4.04;87.25;101838.53;5053897;28;20045;-67
2021/12/12 05:18:06;;;;;;;;;;;;;;;4.06;86.77;101831.41;5053456;28;20486;-67
2021/12/12 05:20:38;;;;;;;23.65;8.23;;;;;;;4.09;87.44;101823.34;5054024;28;20011;-67
2021/12/12 05:23:08;;;;;;;24.27;8.43;;;;;;;4.06;87.79;101826.16;5052912;28;20049;-67
2021/12/12 05:25:44;;;;;;;25.80;8.35;;;;;;;4.07;87.84;101822.59;5053951;28;20072;-67
2021/12/12 05:28:14;;;;;;;22.00;7.55;;;;;;;4.19;87.29;101827.16;5052790;28;20047;-67
2021/12/12 05:30:41;;;;;;;20.52;8.52;;;;;;;4.00;88.53;101829.09;5053823;28;20493;-66
2021/12/12 05:33:10;;;;;;;25.27;8.80;;;;;;;4.08;88.82;101824.28;5018436;28;20475;-67
2021/12/12 05:35:39;;;;;;;21.27;7.90;;;;;;;3.92;89.21;101823.44;5052378;28;20551;-66
2021/12/12 05:38:09;;;;;;;23.10;8.55;;;;;;;3.84;89.17;101826.50;5053782;28;20461;-67
2021/12/12 05:40:39;;;;;;;23.98;8.93;;;;;;;3.81;90.10;101837.16;5053568;28;20041;-67
2021/12/12 05:43:08;;;;;;;25.83;9.27;;;;;;;3.85;90.04;101839.50;5036388;28;20516;-67
2021/12/12 05:45:35;;;;;;;24.25;9.13;;;;;;;3.93;90.07;101841.75;5053394;28;20056;-67
2021/12/12 05:48:05;;;;;;;27.95;9.13;;;;;;;3.91;90.21;101842.75;5053588;28;20048;-67
2021/12/12 05:50:32;;;;;;;30.35;9.93;;;;;;;3.89;90.17;101842.81;5053412;28;20053;-66
2021/12/12 05:53:00;;;;;;;25.38;8.73;;;;;;;3.88;90.08;101835.06;5052478;28;20096;-66
2021/12/12 05:55:30;;;;;;;21.50;8.70;;;;;;;3.95;90.68;101833.78;5053096;28;20124;-67
2021/12/12 05:58:00;;;;;;;25.30;8.93;;;;;;;3.89;91.01;101836.72;5053291;28;20041;-67
2021/12/12 06:00:31;;;;;;;24.45;8.93;;;;;;;3.88;90.87;101830.66;5085608;28;20103;-67
2021/12/12 06:02:59;;;;;;;26.52;9.23;;;;;;;3.85;91.11;101830.81;5052505;28;20049;-67
2021/12/12 06:05:26;;;;;;;25.08;8.73;;;;;;;3.88;90.95;101835.06;5053222;28;20068;-67
2021/12/12 06:07:55;;;;;;;24.27;9.55;;;;;;;3.96;91.09;101832.84;5085192;28;20059;-67
2021/12/12 06:10:23;;;;;;;25.73;9.25;;;;;;;4.03;91.10;101837.66;5065346;28;20041;-66
2021/12/12 06:12:50;;;;;;;25.55;9.82;;;;;;;3.96;90.93;101831.06;5063524;28;20094;-66
2021/12/12 06:15:20;;;;;;;29.92;9.60;;;;;;;3.88;91.70;101832.44;5051550;28;20041;-66
2021/12/12 06:17:49;;;;;;;25.30;10.30;;;;;;;3.91;91.49;101834.88;5035803;28;20053;-66
2021/12/12 06:20:17;;;;;;;25.67;10.00;;;;;;;3.84;92.02;101839.63;5052015;28;20048;-66
2021/12/12 06:22:44;;;;;;;26.52;10.15;;;;;;;3.75;92.18;101835.72;5052716;28;20041;-67
2021/12/12 06:25:12;;;;;;;25.25;10.18;;;;;;;3.79;92.09;101845.09;5018837;28;20530;-67
2021/12/12 06:27:40;;;;;;;28.77;10.60;;;;;;;3.83;92.00;101849.25;5051405;28;20040;-66
2021/12/12 06:30:11;;;;;;;25.45;10.10;;;;;;;3.93;92.30;101843.50;5051601;28;20056;-67
2021/12/12 06:32:38;;;;;;;25.17;9.93;;;;;;;4.13;91.48;101851.16;5052667;28;20466;-66
2021/12/12 06:35:07;;;;;;;26.50;10.73;;;;;;;3.83;92.42;101851.03;5052567;28;20036;-67
2021/12/12 06:37:35;;;;;;;25.70;10.55;;;;;;;3.92;92.74;101857.56;5050616;28;20041;-67
2021/12/12 06:40:06;;;;;;;31.90;11.18;;;;;;;3.96;92.17;101856.47;5051607;28;20049;-67
2021/12/12 06:42:34;;;;;;;28.05;11.27;;;;;;;4.17;92.10;101846.56;5052319;28;20045;-66
2021/12/12 06:45:01;;;;;;;28.42;10.93;;;;;;;3.93;92.13;101843.50;5052307;28;20049;-67
2021/12/12 06:47:29;;;;;;;24.63;11.20;;;;;;;3.91;92.98;101850.63;5051561;28;20413;-66
2021/12/12 06:49:57;;;;;;;19.83;10.20;;;;;;;4.05;92.12;101845.47;5052471;28;20128;-66
2021/12/12 06:52:24;;;;;;;29.60;10.95;;;;;;;4.06;92.25;101857.66;5052468;28;20132;-67
2021/12/12 06:54:52;;;;;;;27.90;10.60;;;;;;;4.15;92.16;101851.06;5051060;28;20041;-66
2021/12/12 06:57:19;;;;;;;25.13;11.23;;;;;;;4.22;92.40;101852.38;5034933;28;20048;-66
2021/12/12 06:59:48;;;;;;;25.95;11.13;;;;;;;4.19;91.89;101856.06;5052232;28;20045;-66
2021/12/12 07:02:17;;;;;;;31.80;11.35;;;;;;;4.25;91.81;101859.28;5050833;28;20049;-66
2021/12/12 07:04:45;;;;;;;29.05;11.55;;;;;;;4.26;92.33;101861.81;5052192;28;20037;-66
2021/12/12 07:07:14;;;;;;;29.45;10.98;;;;;;;4.11;92.33;101865.28;5050730;28;20055;-66
2021/12/12 07:09:43;;;;;;;29.23;12.05;;;;;;;4.31;91.97;101867.66;5052289;28;20045;-67
2021/12/12 07:12:14;;;;;;;25.92;11.73;;;;;;;4.31;92.15;101861.53;5084666;28;20045;-67
2021/12/12 07:14:43;;;;;;;25.17;11.60;;;;;;;4.25;92.15;101856.66;5052130;28;20037;-67
2021/12/12 07:17:10;;;;;;;26.02;11.57;;;;;;;4.38;91.61;101857.63;5052456;28;20045;-67
2021/12/12 07:19:40;;;;;;;26.60;11.45;;;;;;;4.36;92.01;101835.88;5052047;28;20409;-67
2021/12/12 07:22:07;;;;;;;25.30;11.10;;;;;;;4.44;91.65;101846.81;5050756;28;20431;-68
2021/12/12 07:24:35;;;;;;;25.10;11.82;;;;;;;4.40;91.80;101840.00;5052976;28;20048;-67
2021/12/12 07:27:04;;;;;;;21.25;10.57;;;;;;;4.40;91.36;101843.50;5049250;28;20497;-67
2021/12/12 07:29:32;;;;;;;26.15;11.95;;;;;;;4.26;92.15;101847.81;5048654;28;20049;-67
2021/12/12 07:31:59;;;;;;;30.25;11.43;;;;;;;4.37;92.17;101853.34;5088299;28;20132;-66
2021/12/12 07:34:27;;;;;;;27.27;11.75;;;;;;;4.41;92.17;101847.81;5053391;28;20405;-66
2021/12/12 07:36:59;;;;;;;25.23;12.48;;;;;;;4.52;92.16;101841.09;5056046;28;20048;-66
2021/12/12 07:39:28;;;;;;;21.77;11.40;;;;;;;4.51;91.88;101847.28;5035119;28;20053;-66
2021/12/12 07:41:57;;;;;;;24.02;11.32;;;;;;;4.56;91.49;101850.50;5054516;28;20037;-66
2021/12/12 07:44:28;;;;;;;25.17;11.70;;;;;;;4.58;91.82;101854.75;5038049;28;20040;-66
2021/12/12 07:46:58;;;;;;;24.67;11.65;;;;;;;4.57;91.41;101846.94;5054452;28;20044;-66
2021/12/12 07:49:31;;;;;;;20.75;11.85;;;;;;;4.53;91.77;101848.91;5054550;28;20041;-66
2021/12/12 07:52:00;;;;;;;24.48;11.80;;;;;;;4.54;91.64;101853.22;5054217;28;20128;-66
2021/12/12 07:54:27;;;;;;;29.17;12.20;;;;;;;4.26;93.17;101855.69;5054467;28;20041;-66
2021/12/12 07:56:54;;;;;;;26.40;13.00;;;;;;;4.48;93.18;101858.00;5055652;28;20045;-67
2021/12/12 07:59:21;;;;;;;29.63;13.25;;;;;;;4.45;92.50;101860.78;5054255;28;20056;-66
2021/12/12 08:01:50;;;;;;;28.98;13.10;;;;;;;4.59;92.67;101871.34;5055008;28;20049;-66
2021/12/12 08:04:21;;;;;;;24.73;12.40;;;;;;;4.70;92.28;101878.63;5055419;28;20041;-66
2021/12/12 08:06:49;;;;;;;24.83;12.73;;;;;;;4.85;92.14;101884.78;5053862;28;20049;-67
2021/12/12 08:09:16;;;;;;;27.30;12.40;;;;;;;4.77;91.70;101877.34;5055431;28;20683;-67
2021/12/12 08:11:45;;;;;;;28.23;13.50;;;;;;;4.84;91.92;101872.56;5054160;28;20124;-66
2021/12/12 08:14:17;;;;;;;25.13;13.20;;;;;;;4.72;92.16;101861.81;5055190;28;20090;-66
2021/12/12 08:16:46;;;;;;;22.98;13.10;;;;;;;4.80;92.13;101864.00;5043442;28;20087;-66
2021/12/12 08:19:14;;;;;;;24.75;13.45;;;;;;;4.73;92.38;101871.41;5058844;28;20037;-66
2021/12/12 08:21:40;;;;;;;28.30;12.63;;;;;;;4.71;92.69;101875.03;5055071;28;20094;-66
2021/12/12 08:24:10;;;;;;;30.02;13.18;;;;;;;4.70;92.88;101879.47;5037338;28;20041;-66
2021/12/12 08:26:40;;;;;;;26.00;12.65;;;;;;;4.82;92.10;101885.81;5054664;28;20132;-66
2021/12/12 08:29:10;;;;;;;23.40;11.90;;;;;;;4.76;92.81;101878.25;5055144;28;20051;-66
2021/12/12 08:31:37;;;;;;;21.98;11.27;;;;;;;4.77;91.74;101874.72;5053779;28;20132;-68
2021/12/12 08:34:07;;;;;;;22.42;11.50;;;;;;;4.83;92.14;101889.28;5035014;28;20051;-67
2021/12/12 08:36:37;;;;;;;25.40;12.25;;;;;;;4.71;92.96;101881.19;5055082;28;20516;-67
2021/12/12 08:39:06;;;;;;;23.67;12.38;;;;;;;4.84;92.46;101883.94;5054606;28;20391;-66
2021/12/12 08:41:35;;;;;;;25.10;12.32;;;;;;;4.60;93.29;101886.19;5054764;28;20506;-67
2021/12/12 08:44:04;;;;;;;26.30;12.30;;;;;;;4.71;93.22;101893.44;5053638;28;20049;-66
2021/12/12 08:46:31;;;;;;;23.55;13.77;;;;;;;4.77;93.10;101899.22;5054724;28;20037;-67
2021/12/12 08:49:00;;;;;;;23.13;13.73;;;;;;;4.80;93.00;101896.41;5054621;28;20044;-67
2021/12/12 08:51:34;;;;;;;25.38;14.50;;;;;;;4.83;92.89;101899.81;5053242;28;20047;-67
2021/12/12 08:54:13;;;;;;;26.45;14.32;;;;;;;4.85;92.85;101908.44;5053366;28;20141;-66
2021/12/12 08:56:48;;;;;;;31.35;16.13;;;;;;;4.87;92.42;101910.03;5054603;28;20128;-67
2021/12/12 08:59:20;;;;;;;26.90;15.68;;;;;;;4.97;92.17;101913.84;5086730;28;20040;-67
2021/12/12 09:01:48;;;;;;;;;;;;;;;4.97;92.63;101913.84;5053410;28;20057;-67
2021/12/12 09:04:15;;;;;;;24.08;14.93;;;;;;;5.10;92.34;101907.88;5085934;28;19925;-67
2021/12/12 09:07:17;;;;;;;26.77;15.25;;;;;;;5.10;92.14;101911.34;5051412;28;20411;-67
2021/12/12 09:09:52;;;;;;;30.75;15.55;;;;;;;5.09;92.24;101908.78;5053924;28;20398;-67
2021/12/12 09:12:26;;;;;;;33.75;15.23;;;;;;;5.28;91.04;101908.56;5054272;28;20132;-66
2021/12/12 09:15:02;;;;;;;30.15;14.02;;;;;;;5.12;91.77;101906.84;5052977;28;20048;-66
2021/12/12 09:17:35;;;;;;;25.80;14.02;;;;;;;5.12;91.99;101909.47;5054139;28;20493;-66
2021/12/12 09:20:11;;;;;;;25.73;13.65;;;;;;;5.15;92.35;101911.94;5052795;28;20128;-66
2021/12/12 09:22:47;;;;;;;21.02;12.88;;;;;;;5.22;91.74;101915.06;5052857;28;20072;-66
2021/12/12 09:25:23;;;;;;;24.70;12.52;;;;;;;5.29;91.67;101913.72;5053953;28;20047;-67
2021/12/12 09:28:03;;;;;;;22.05;11.18;;;;;;;5.20;91.87;101914.25;5036330;28;20052;-67
2021/12/12 09:30:31;;;;;;;21.23;11.02;;;;;;;5.26;91.91;101915.72;5052833;28;20067;-66
2021/12/12 09:33:21;;;;;;;19.48;10.05;;;;;;;5.30;91.77;101923.31;5053950;28;20098;-66
2021/12/12 09:35:53;;;;;;;22.10;10.35;;;;;;;5.30;91.14;101919.84;5053752;28;20120;-66
2021/12/12 09:38:25;;;;;;;;;;;;;;;5.38;91.25;101922.84;5052202;28;20052;-66
2021/12/12 09:41:20;;;;;;;18.55;8.13;;;;;;;5.34;92.11;101922.19;5053570;28;19962;-66
2021/12/12 09:44:27;;;;;;;18.30;8.32;;;;;;;5.36;91.15;101914.22;5053301;28;20513;-67
2021/12/12 09:47:27;;;;;;;17.58;7.75;;;;;;;5.52;90.96;101919.41;5084965;28;20041;-67
2021/12/12 09:53:37;;;;;;;17.63;7.60;;;;;;;5.49;91.38;101928.31;5052390;28;20402;-67
2021/12/12 09:56:11;;;;;;;17.77;7.10;;;;;;;5.50;91.18;101929.19;5053018;28;20549;-67
2021/12/12 09:59:02;;;;;;;16.00;6.60;;;;;;;5.50;91.23;101926.56;5052057;28;20044;-67
2021/12/12 10:01:37;;;;;;;15.77;6.75;;;;;;;5.57;91.03;101909.47;5053172;28;20045;-67
2021/12/12 10:04:20;;;;;;;18.38;6.63;;;;;;;5.62;90.86;101917.06;5052026;28;20037;-67
2021/12/12 10:07:00;;;;;;;18.65;6.28;;;;;;;5.66;90.78;101913.31;5039491;28;20040;-67
2021/12/12 10:09:52;;;;;;;15.38;6.75;;;;;;;5.67;90.76;101915.84;5042934;28;20129;-67
2021/12/12 10:12:23;;;;;;;17.35;6.63;;;;;;;5.75;91.06;101913.59;5035197;28;20041;-67
2021/12/12 10:17:58;;;;;;;19.33;6.90;;;;;;;5.73;90.61;101914.63;5110410;27;20428;-68
2021/12/12 10:20:49;;;;;;;17.20;6.20;;;;;;;5.75;90.84;101916.22;5092004;28;20057;-68
2021/12/12 10:23:38;;;;;;;13.07;6.07;;;;;;;5.85;89.93;101916.50;5091896;28;20039;-68
2021/12/12 10:26:11;;;;;;;16.13;6.47;;;;;;;5.81;90.53;101920.28;5110307;28;20036;-67
2021/12/12 10:28:49;;;;;;;16.67;6.47;;;;;;;5.81;91.01;101927.34;5097917;28;20508;-67
2021/12/12 10:31:22;;;;;;;15.65;6.57;;;;;;;5.87;90.44;101919.03;5092370;28;20065;-67
2021/12/12 10:33:57;;;;;;;16.38;7.07;;;;;;;5.84;90.69;101913.97;5107847;28;20254;-68
2021/12/12 10:36:34;;;;;;;19.42;7.20;;;;;;;5.89;90.38;101911.88;5110195;28;20035;-67
2021/12/12 10:39:24;;;;;;;14.43;6.68;;;;;;;5.92;90.45;101928.34;5075427;28;20050;-67
2021/12/12 10:41:59;;;;;;;14.13;6.50;;;;;;;5.83;90.71;101928.09;5109879;28;20044;-67
2021/12/12 10:44:34;;;;;;;14.55;7.25;;;;;;;5.77;90.98;101918.78;5109460;28;20050;-67
2021/12/12 10:47:30;;;;;;;17.40;6.78;;;;;;;5.88;90.55;101926.03;5075512;28;20111;-67
2021/12/12 10:50:18;;;;;;;15.38;6.60;;;;;;;5.86;90.87;101923.47;5054672;28;20120;-67
2021/12/12 10:52:51;;;;;;;13.93;6.68;;;;;;;5.87;91.25;101924.31;5089340;28;20119;-68
2021/12/12 10:55:30;;;;;;;13.93;7.05;;;;;;;6.03;90.37;101924.25;5098133;28;20366;-68
2021/12/12 10:58:06;;;;;;;16.88;6.88;;;;;;;5.98;90.32;101928.94;5078229;28;20067;-66
2021/12/12 11:00:41;;;;;;;15.15;7.28;;;;;;;6.06;90.43;101924.91;5088630;28;20036;-67
2021/12/12 11:03:16;;;;;;;16.25;6.65;;;;;;;5.89;90.96;101927.69;5086198;28;20833;-66
2021/12/12 11:05:51;;;;;;;15.75;6.50;;;;;;;5.96;91.63;101924.59;5076211;28;20137;-66
2021/12/12 11:08:42;;;;;;;16.20;7.10;;;;;;;5.98;91.23;101928.94;5097966;28;20116;-67
2021/12/12 11:11:15;;;;;;;15.00;6.43;;;;;;;6.04;91.10;101923.28;5078152;28;20040;-67
2021/12/12 11:13:50;;;;;;;16.35;6.40;;;;;;;6.03;91.45;101924.25;5081090;28;20047;-66
2021/12/12 11:16:30;;;;;;;20.48;7.80;;;;;;;6.02;91.53;101928.69;5069113;28;20040;-66
2021/12/12 11:19:09;;;;;;;13.90;6.80;;;;;;;6.03;90.99;101926.88;5097566;28;20039;-66
2021/12/12 11:21:43;;;;;;;16.20;7.25;;;;;;;6.02;91.52;101933.94;5084494;28;20386;-66
2021/12/12 11:24:22;;;;;;;11.60;6.07;;;;;;;6.29;90.26;101922.59;5107864;28;20435;-66
2021/12/12 11:27:09;;;;;;;14.38;6.20;;;;;;;6.04;91.40;101929.44;5102525;28;20044;-66
2021/12/12 11:29:40;;;;;;;19.60;6.30;;;;;;;5.93;92.06;101927.41;5087543;28;20609;-66
2021/12/12 11:32:10;;;;;;;;;;;;;;;5.75;92.85;101932.03;5095405;28;20047;-66
2021/12/12 11:34:46;;;;;;;15.80;6.80;;;;;;;5.76;92.89;101927.59;5093590;28;20392;-66
2021/12/12 11:37:22;;;;;;;13.57;6.82;;;;;;;5.81;93.21;101929.97;5093547;28;20028;-66
2021/12/12 11:39:57;;;;;;;17.23;7.07;;;;;;;5.87;92.59;101926.94;5077572;28;20036;-66
2021/12/12 11:42:32;;;;;;;15.13;8.00;;;;;;;5.83;92.92;101931.56;5074017;28;20051;-66
2021/12/12 11:45:26;;;;;;;16.70;7.22;;;;;;;5.98;92.81;101931.59;5083191;28;20578;-66
2021/12/12 11:48:16;;;;;;;14.20;6.75;;;;;;;5.77;92.77;101935.41;5074752;28;20047;-66
2021/12/12 11:51:07;;;;;;;19.40;7.07;;;;;;;5.89;93.49;101922.44;5073093;28;20060;-66
2021/12/12 11:53:56;;;;;;;14.77;7.20;;;;;;;6.02;92.72;101935.72;5073396;28;20070;-66
2021/12/12 11:56:34;;;;;;;14.07;6.88;;;;;;;5.88;92.92;101931.28;5074683;28;20129;-66
2021/12/12 11:59:15;;;;;;;15.75;7.50;;;;;;;5.89;93.27;101938.22;5077390;28;20033;-66
2021/12/12 12:01:51;;;;;;;;;;;;;;;6.05;92.83;101936.38;5083004;28;20105;-68
2021/12/12 12:04:38;;;;;;;14.80;6.90;;;;;;;6.12;92.95;101942.13;5073263;28;19924;-68
2021/12/12 12:07:39;;;;;;;13.23;7.20;;;;;;;6.20;92.36;101939.00;5073680;28;20064;-68
2021/12/12 12:10:30;;;;;;;16.08;7.50;;;;;;;6.21;92.28;101938.06;5080287;28;20040;-66
2021/12/12 12:13:12;;;;;;;13.85;7.38;;;;;;;6.24;92.59;101933.44;5081539;28;20443;-66